createdAt,value
2022-10-15T00:02:50.454Z,22.23
2022-10-15T00:07:52.749Z,21.67
2022-10-15T00:12:54.488Z,22.00
2022-10-15T00:17:56.502Z,25.15
2022-10-15T00:22:58.239Z,23.90
2022-10-15T00:28:00.286Z,28.00
2022-10-15T00:33:01.999Z,27.27
2022-10-15T00:38:03.726Z,31.33
2022-10-15T00:43:11.139Z,35.25
2022-10-15T00:48:12.885Z,34.85
2022-10-15T00:53:14.632Z,38.85
2022-10-15T00:58:19.896Z,32.58
2022-10-15T01:03:22.260Z,33.53
2022-10-15T01:08:24.145Z,36.90
2022-10-15T01:13:52.830Z,32.33
2022-10-15T01:18:58.556Z,38.60
2022-10-15T01:24:22.584Z,33.90
2022-10-15T01:29:47.118Z,36.53
2022-10-15T01:35:05.415Z,44.45
2022-10-15T01:40:14.487Z,34.50
2022-10-15T01:45:22.886Z,44.70
2022-10-15T01:50:27.757Z,34.67
2022-10-15T01:55:31.714Z,40.05
2022-10-15T02:00:33.532Z,39.55
2022-10-15T02:05:44.943Z,39.95
2022-10-15T02:11:16.432Z,39.08
2022-10-15T02:16:30.152Z,36.78
2022-10-15T02:21:44.952Z,36.72
2022-10-15T02:26:48.069Z,40.83
2022-10-15T02:31:51.161Z,34.83
2022-10-15T02:36:54.950Z,40.97
2022-10-15T02:41:57.694Z,38.13
2022-10-15T02:47:00.273Z,38.85
2022-10-15T02:52:02.022Z,37.63
2022-10-15T02:57:04.105Z,38.45
2022-10-15T03:02:05.840Z,35.88
2022-10-15T03:07:07.751Z,35.50
2022-10-15T03:12:09.561Z,36.95
2022-10-15T03:17:11.305Z,36.28
2022-10-15T03:22:13.041Z,39.95
2022-10-15T03:27:14.746Z,34.70
2022-10-15T03:32:16.883Z,37.55
2022-10-15T03:37:18.820Z,35.10
2022-10-15T03:42:20.738Z,28.08
2022-10-15T03:47:22.700Z,36.35
2022-10-15T03:52:24.833Z,34.45
2022-10-15T03:57:26.833Z,34.40
2022-10-15T04:02:31.010Z,33.35
2022-10-15T04:07:32.890Z,24.83
2022-10-15T04:12:34.793Z,26.45
2022-10-15T04:17:36.536Z,25.15
2022-10-15T04:22:38.424Z,22.98
2022-10-15T04:27:40.151Z,36.58
2022-10-15T04:32:41.888Z,25.50
2022-10-15T04:37:43.619Z,24.77
2022-10-15T04:42:46.035Z,19.70
2022-10-15T04:47:47.941Z,26.02
2022-10-15T04:52:49.739Z,26.65
2022-10-15T04:57:51.448Z,21.65
2022-10-15T05:02:53.256Z,20.80
2022-10-15T05:07:54.964Z,22.80
2022-10-15T05:12:57.065Z,24.65
2022-10-15T05:17:58.884Z,23.13
2022-10-15T05:23:00.745Z,24.65
2022-10-15T05:28:02.593Z,25.02
2022-10-15T05:33:04.311Z,23.15
2022-10-15T05:38:06.327Z,24.85
2022-10-15T05:43:08.042Z,20.98
2022-10-15T05:48:09.772Z,24.63
2022-10-15T05:53:11.505Z,23.63
2022-10-15T05:58:13.231Z,21.08
2022-10-15T06:03:14.991Z,19.95
2022-10-15T06:08:17.241Z,17.75
2022-10-15T06:13:19.251Z,14.25
2022-10-15T06:18:21.129Z,14.68
2022-10-15T06:23:24.367Z,13.68
2022-10-15T06:28:26.518Z,11.95
2022-10-15T06:33:29.106Z,9.05
2022-10-15T06:38:31.064Z,11.05
2022-10-15T06:43:35.149Z,7.82
2022-10-15T06:48:37.613Z,8.02
2022-10-15T06:53:42.186Z,7.65
2022-10-15T06:58:43.930Z,9.38
2022-10-15T07:03:48.479Z,7.38
2022-10-15T07:08:50.227Z,8.40
2022-10-15T07:13:52.114Z,8.02
2022-10-15T07:18:53.879Z,7.72
2022-10-15T07:23:55.760Z,5.85
2022-10-15T07:28:58.237Z,6.20
2022-10-15T07:33:59.998Z,7.55
2022-10-15T07:39:01.702Z,5.72
2022-10-15T07:44:03.860Z,5.57
2022-10-15T07:49:05.574Z,6.50
2022-10-15T07:54:07.318Z,5.93
2022-10-15T07:59:09.503Z,5.28
2022-10-15T08:04:11.245Z,5.38
2022-10-15T08:09:13.245Z,4.28
2022-10-15T08:14:15.129Z,7.20
2022-10-15T08:19:17.800Z,3.05
2022-10-15T08:24:19.772Z,4.65
2022-10-15T08:29:21.544Z,2.28
2022-10-15T08:34:23.555Z,1.85
2022-10-15T08:39:25.305Z,2.10
2022-10-15T08:44:32.013Z,1.33
2022-10-15T08:49:45.812Z,4.13
2022-10-15T08:54:47.928Z,1.10
2022-10-15T09:00:04.688Z,2.88
2022-10-15T09:05:15.473Z,1.15
2022-10-15T09:10:39.520Z,1.10
2022-10-15T09:16:13.291Z,4.38
2022-10-15T09:21:15.541Z,1.00
2022-10-15T09:26:17.386Z,0.70
2022-10-15T09:31:23.764Z,1.25
2022-10-15T09:37:08.947Z,1.15
2022-10-15T09:42:30.866Z,0.70
2022-10-15T09:47:34.868Z,1.23
2022-10-15T09:52:59.497Z,1.25
2022-10-15T09:58:16.541Z,1.35
2022-10-15T10:03:18.264Z,1.75
2022-10-15T10:08:24.654Z,2.00
2022-10-15T10:13:30.724Z,7.03
2022-10-15T10:18:32.654Z,1.35
2022-10-15T10:23:39.436Z,0.90
2022-10-15T10:28:56.617Z,2.05
2022-10-15T10:34:03.284Z,1.40
2022-10-15T10:39:21.427Z,0.85
2022-10-15T10:44:34.070Z,1.55
2022-10-15T10:49:39.103Z,1.27
2022-10-15T10:59:51.893Z,3.22
2022-10-15T11:04:53.839Z,0.90
2022-10-15T11:10:09.411Z,1.15
2022-10-15T11:15:23.004Z,1.17
2022-10-15T11:21:05.995Z,2.00
2022-10-15T11:26:37.139Z,0.93
2022-10-15T11:32:02.595Z,2.97
2022-10-15T11:37:27.153Z,1.10
2022-10-15T11:42:50.692Z,1.13
2022-10-15T11:48:17.061Z,1.10
2022-10-15T11:53:50.940Z,3.45
2022-10-15T11:59:15.574Z,8.10
2022-10-15T12:04:44.893Z,1.80
2022-10-15T12:09:52.275Z,1.25
2022-10-15T12:15:04.444Z,1.38
2022-10-15T12:20:14.330Z,1.20
2022-10-15T12:25:34.250Z,1.95
2022-10-15T12:30:37.744Z,1.33
2022-10-15T12:35:40.071Z,1.35
2022-10-15T12:40:41.852Z,1.65
2022-10-15T12:45:56.254Z,1.10
2022-10-15T12:51:16.745Z,2.90
2022-10-15T12:56:18.451Z,7.00
2022-10-15T13:01:20.542Z,11.48
2022-10-15T13:06:22.536Z,1.02
2022-10-15T13:11:29.081Z,3.80
2022-10-15T13:16:31.371Z,1.90
2022-10-15T13:21:53.893Z,2.53
2022-10-15T13:26:57.249Z,2.15
2022-10-15T13:32:00.706Z,0.70
2022-10-15T13:37:04.214Z,1.00
2022-10-15T13:42:21.991Z,2.08
2022-10-15T13:47:31.154Z,1.80
2022-10-15T13:52:32.901Z,2.40
2022-10-15T13:57:34.661Z,0.77
2022-10-15T14:02:36.467Z,7.32
2022-10-15T14:07:38.248Z,1.30
2022-10-15T14:12:40.036Z,5.05
2022-10-15T14:17:41.789Z,6.85
2022-10-15T14:22:48.271Z,4.07
2022-10-15T14:27:50.045Z,1.15
2022-10-15T14:32:52.606Z,4.82
2022-10-15T14:38:19.880Z,3.83
2022-10-15T14:43:21.776Z,4.72
2022-10-15T14:48:38.405Z,3.33
2022-10-15T14:53:45.760Z,3.10
2022-10-15T14:58:56.535Z,1.17
2022-10-15T15:03:58.390Z,1.40
2022-10-15T15:09:00.443Z,4.10
2022-10-15T15:14:03.666Z,2.50
2022-10-15T15:19:08.975Z,1.20
2022-10-15T15:24:11.545Z,3.22
2022-10-15T15:29:16.174Z,5.90
2022-10-15T15:34:17.993Z,2.45
2022-10-15T15:39:19.743Z,3.85
2022-10-15T15:44:21.517Z,3.47
2022-10-15T15:49:23.608Z,4.32
2022-10-15T15:54:25.346Z,1.80
2022-10-15T15:59:27.230Z,4.45
2022-10-15T16:04:28.958Z,2.30
2022-10-15T16:09:30.747Z,1.30
2022-10-15T16:14:32.624Z,6.72
2022-10-15T16:19:34.497Z,2.10
2022-10-15T16:24:36.250Z,4.30
2022-10-15T16:29:38.042Z,4.07
2022-10-15T16:34:39.805Z,6.18
2022-10-15T16:39:41.659Z,2.30
2022-10-15T16:44:44.268Z,2.10
2022-10-15T16:49:45.990Z,3.22
2022-10-15T16:54:47.853Z,8.20
2022-10-15T16:59:49.600Z,5.68
2022-10-15T17:04:51.381Z,2.53
2022-10-15T17:09:53.129Z,5.00
2022-10-15T17:14:54.882Z,11.18
2022-10-15T17:19:56.617Z,6.35
2022-10-15T17:24:58.376Z,3.17
2022-10-15T17:30:00.198Z,1.65
2022-10-15T17:35:04.138Z,4.75
2022-10-15T17:40:06.719Z,8.10
2022-10-15T17:45:11.124Z,3.50
2022-10-15T17:50:14.480Z,3.17
2022-10-15T17:55:17.160Z,2.83
2022-10-15T18:00:19.083Z,5.05
2022-10-15T18:05:20.845Z,4.68
2022-10-15T18:10:22.615Z,5.38
2022-10-15T18:15:24.364Z,3.95
2022-10-15T18:20:26.231Z,7.05
2022-10-15T18:25:28.024Z,6.43
2022-10-15T18:30:29.774Z,6.13
2022-10-15T18:35:35.630Z,4.60
2022-10-15T18:40:41.051Z,5.05
2022-10-15T18:45:44.745Z,2.83
2022-10-15T18:55:48.749Z,6.07
2022-10-15T19:00:50.491Z,3.92
2022-10-15T19:05:52.317Z,6.05
2022-10-15T19:10:54.324Z,5.35
2022-10-15T19:15:56.054Z,5.55
2022-10-15T19:20:57.950Z,4.05
2022-10-15T19:26:00.337Z,5.03
2022-10-15T19:31:05.607Z,5.10
2022-10-15T19:36:07.460Z,7.22
2022-10-15T19:41:09.217Z,5.32
2022-10-15T19:46:11.748Z,9.80
2022-10-15T19:51:13.997Z,6.80
2022-10-15T19:56:15.788Z,8.90
2022-10-15T20:01:17.599Z,9.65
2022-10-15T20:06:20.170Z,4.72
2022-10-15T20:11:24.177Z,10.43
2022-10-15T20:16:27.577Z,3.88
2022-10-15T20:21:33.680Z,7.85
2022-10-15T20:26:35.478Z,4.82
2022-10-15T20:31:41.730Z,8.32
2022-10-15T20:36:43.432Z,4.13
2022-10-15T20:41:45.228Z,8.00
2022-10-15T20:46:58.690Z,5.20
2022-10-15T20:52:01.469Z,13.18
2022-10-15T20:57:03.888Z,6.35
2022-10-15T21:02:05.745Z,6.93
2022-10-15T21:07:07.513Z,7.40
2022-10-15T21:12:10.298Z,4.72
2022-10-15T21:17:12.892Z,4.50
2022-10-15T21:22:14.656Z,5.13
2022-10-15T21:27:16.570Z,4.75
2022-10-15T21:32:18.453Z,4.10
2022-10-15T21:37:20.197Z,3.65
2022-10-15T21:42:21.907Z,5.95
2022-10-15T21:47:26.162Z,2.63
2022-10-15T21:52:28.209Z,3.95
2022-10-15T21:57:30.229Z,3.70
2022-10-15T22:02:32.068Z,5.75
2022-10-15T22:07:37.171Z,4.60
2022-10-15T22:12:41.357Z,7.97
2022-10-15T22:17:43.076Z,4.75
2022-10-15T22:22:44.822Z,5.60
2022-10-15T22:27:46.862Z,4.05
2022-10-15T22:32:48.548Z,3.65
2022-10-15T22:37:55.235Z,6.55
2022-10-15T22:42:57.215Z,5.28
2022-10-15T22:47:59.060Z,3.83
2022-10-15T22:53:00.779Z,3.88
2022-10-15T22:58:03.246Z,2.70
2022-10-15T23:03:04.997Z,2.28
2022-10-15T23:08:06.737Z,3.85
2022-10-15T23:13:08.500Z,3.47
2022-10-15T23:18:10.616Z,4.43
2022-10-15T23:23:12.490Z,4.50
2022-10-15T23:28:14.194Z,4.25
2022-10-15T23:33:16.003Z,5.32
2022-10-15T23:38:17.742Z,1.88
2022-10-15T23:43:19.638Z,3.30
2022-10-15T23:48:21.631Z,1.48
2022-10-15T23:53:23.401Z,2.55
2022-10-15T23:58:25.150Z,3.03
